Time;durP1;ratioP1;P1;durP2;ratioP2;P2;SDS_P1;SDS_P2;PMS_P1;PMS_P2;Temp;Humidity;BMP_temperature;BMP_pressure;BME280_temperature;BME280_humidity;BME280_pressure;Samples;Min_cycle;Max_cycle;Signal;HPM_P1;HPM_P2
2022/10/08 00:01:21;;;;;;;18.60;3.10;;;;;;;11.97;77.86;101571.63;5093293;28;20016;-78
2022/10/08 00:03:50;;;;;;;17.27;3.83;;;;;;;11.94;77.99;101571.69;5102554;28;20043;-78
2022/10/08 00:06:22;;;;;;;15.40;3.40;;;;;;;11.96;78.21;101575.19;5113923;28;20031;-78
2022/10/08 00:08:50;;;;;;;20.60;3.10;;;;;;;11.97;78.18;101573.41;5110725;28;20062;-78
2022/10/08 00:11:22;;;;;;;13.30;3.13;;;;;;;12.00;77.92;101565.41;5094498;28;20024;-78
2022/10/08 00:13:49;;;;;;;13.30;3.45;;;;;;;12.01;77.98;101569.78;5095697;28;20118;-78
2022/10/08 00:16:20;;;;;;;13.95;3.45;;;;;;;12.04;77.76;101575.06;5095214;28;20044;-78
2022/10/08 00:18:47;;;;;;;20.77;3.20;;;;;;;12.03;78.33;101578.63;5094519;28;20334;-78
2022/10/08 00:21:16;;;;;;;29.23;3.08;;;;;;;12.07;77.92;101582.09;5093002;28;20039;-78
2022/10/08 00:23:43;;;;;;;14.18;2.75;;;;;;;12.07;78.27;101572.38;5108920;28;20102;-78
2022/10/08 00:26:10;;;;;;;9.50;2.42;;;;;;;12.09;77.87;101574.97;5094203;28;20064;-78
2022/10/08 00:28:37;;;;;;;12.43;2.78;;;;;;;12.09;78.27;101572.31;5094524;28;20415;-78
2022/10/08 00:31:12;;;;;;;13.57;2.88;;;;;;;12.10;78.14;101582.94;5111051;28;20035;-78
2022/10/08 00:33:37;;;;;;;15.50;3.15;;;;;;;12.14;78.16;101582.00;5114608;28;20044;-78
2022/10/08 00:36:09;;;;;;;18.52;3.42;;;;;;;12.17;77.89;101573.97;5114518;28;20023;-78
2022/10/08 00:38:35;;;;;;;12.38;2.80;;;;;;;12.17;77.70;101584.59;5101836;28;20032;-78
2022/10/08 00:41:04;;;;;;;14.63;2.90;;;;;;;12.18;77.92;101582.81;5093885;28;20589;-78
2022/10/08 00:43:50;;;;;;;11.70;3.10;;;;;;;12.21;77.91;101586.25;5086997;28;20032;-78
2022/10/08 00:46:24;;;;;;;11.75;3.13;;;;;;;12.24;78.13;101585.38;5076444;28;20517;-78
2022/10/08 00:48:55;;;;;;;16.50;3.05;;;;;;;12.25;78.35;101593.28;5086002;28;20050;-78
2022/10/08 00:51:20;;;;;;;13.90;3.38;;;;;;;12.25;78.14;101595.06;5089155;28;20475;-78
2022/10/08 00:53:46;;;;;;;13.00;3.42;;;;;;;12.26;78.71;101597.72;5084514;28;20038;-78
2022/10/08 00:56:12;;;;;;;16.48;3.08;;;;;;;12.25;78.45;101597.72;5093539;28;20046;-78
2022/10/08 00:58:40;;;;;;;12.35;3.20;;;;;;;12.24;78.81;101598.66;5093971;28;20048;-78
2022/10/08 01:01:06;;;;;;;20.45;3.53;;;;;;;12.24;78.90;101603.97;5094176;28;20060;-78
2022/10/08 01:03:31;;;;;;;18.83;3.53;;;;;;;12.24;78.85;101601.31;5107016;28;20082;-78
2022/10/08 01:06:18;;;;;;;16.52;3.20;;;;;;;12.26;79.08;101604.78;5092228;28;20085;-78
2022/10/08 01:09:05;;;;;;;18.48;3.78;;;;;;;12.25;79.30;101608.34;5097344;28;20046;-78
2022/10/08 01:11:31;;;;;;;12.05;3.03;;;;;;;12.27;79.93;101602.13;5101020;28;20042;-78
2022/10/08 01:14:02;;;;;;;14.07;3.58;;;;;;;12.28;80.51;101602.97;5092681;28;20056;-78
2022/10/08 01:17:01;;;;;;;22.02;3.53;;;;;;;12.26;80.78;101599.47;5081751;28;20135;-77
2022/10/08 01:19:45;;;;;;;14.27;3.58;;;;;;;12.23;82.62;101604.84;5084069;28;20043;-76
2022/10/08 01:22:39;;;;;;;13.18;3.85;;;;;;;12.21;83.60;101604.84;5090674;28;20038;-77
2022/10/08 01:25:32;;;;;;;16.95;4.57;;;;;;;12.14;84.64;101604.97;5094956;28;20024;-76
2022/10/08 01:28:07;;;;;;;12.75;4.40;;;;;;;12.01;86.43;101609.63;5102335;28;20032;-76
2022/10/08 01:30:34;;;;;;;14.32;4.57;;;;;;;11.93;86.26;101609.72;5099385;28;20036;-76
2022/10/08 01:33:13;;;;;;;9.43;4.20;;;;;;;11.86;87.44;101604.50;5093508;28;20036;-76
2022/10/08 01:35:46;;;;;;;15.70;4.25;;;;;;;11.79;87.73;101601.06;5103228;28;20471;-76
2022/10/08 01:38:17;;;;;;;13.25;4.18;;;;;;;11.78;88.40;101604.63;5109914;28;20364;-76
2022/10/08 01:40:46;;;;;;;13.95;4.70;;;;;;;11.77;88.00;101605.50;5103702;28;20042;-76
2022/10/08 01:43:15;;;;;;;13.07;3.90;;;;;;;11.72;88.47;101596.75;5091348;28;20039;-76
2022/10/08 01:45:46;;;;;;;10.93;4.15;;;;;;;11.72;88.46;101591.44;5092544;28;20044;-76
2022/10/08 01:48:19;;;;;;;22.55;4.45;;;;;;;11.68;89.13;101597.72;5091603;28;20123;-77
2022/10/08 01:50:56;;;;;;;10.50;4.03;;;;;;;11.61;89.56;101600.44;5087121;28;20437;-77
2022/10/08 01:53:27;;;;;;;9.38;4.55;;;;;;;11.59;90.06;101601.34;5098667;28;20032;-77
2022/10/08 01:55:55;;;;;;;13.20;4.00;;;;;;;11.57;90.27;101608.44;5104233;28;20353;-76
2022/10/08 01:58:30;;;;;;;13.80;4.45;;;;;;;11.55;90.17;101615.56;5105371;28;20023;-76
2022/10/08 02:01:03;;;;;;;15.95;4.35;;;;;;;11.53;91.27;101609.41;5079414;28;20139;-77
2022/10/08 02:03:29;;;;;;;15.65;4.50;;;;;;;11.49;91.29;101605.91;5086921;28;20051;-77
2022/10/08 02:05:55;;;;;;;14.88;4.35;;;;;;;11.49;91.51;101605.91;5091221;28;20448;-77
2022/10/08 02:08:21;;;;;;;13.18;3.38;;;;;;;11.46;92.29;101613.91;5104891;28;20043;-77
2022/10/08 02:10:47;;;;;;;16.23;3.42;;;;;;;11.43;92.16;101616.59;5092432;28;20127;-77
2022/10/08 02:13:12;;;;;;;15.10;4.70;;;;;;;11.39;93.51;101618.41;5089770;28;20150;-76
2022/10/08 02:15:47;;;;;;;17.85;4.95;;;;;;;11.41;93.30;101626.34;5091925;28;20097;-77
2022/10/08 02:18:40;;;;;;;14.10;4.10;;;;;;;11.38;93.43;101616.66;5098352;28;20486;-77
2022/10/08 02:21:23;;;;;;;11.98;3.70;;;;;;;11.34;93.77;101617.59;5070806;28;20036;-76
2022/10/08 02:24:03;;;;;;;13.63;3.97;;;;;;;11.31;93.79;101617.63;5090912;28;20479;-77
2022/10/08 02:26:35;;;;;;;12.57;3.67;;;;;;;11.29;94.22;101619.41;5087015;28;20546;-77
2022/10/08 02:29:14;;;;;;;9.30;3.33;;;;;;;11.27;94.90;101623.84;5097907;28;20085;-77
2022/10/08 02:31:47;;;;;;;15.82;3.72;;;;;;;11.27;94.61;101626.50;5059406;28;20440;-77
2022/10/08 02:34:26;;;;;;;10.02;3.22;;;;;;;11.28;94.11;101628.28;5072166;28;20044;-77
2022/10/08 02:37:07;;;;;;;11.07;3.50;;;;;;;11.26;94.36;101624.78;5112498;28;20027;-77
2022/10/08 02:39:34;;;;;;;;;;;;;;;11.31;92.52;101627.38;5095047;28;20115;-77
2022/10/08 02:42:04;;;;;;;10.93;3.15;;;;;;;11.24;94.31;101629.22;5090852;28;20416;-77
2022/10/08 02:44:52;;;;;;;12.82;3.83;;;;;;;11.25;95.06;101624.78;5084762;28;20032;-77
2022/10/08 02:47:22;;;;;;;14.50;3.45;;;;;;;11.23;94.92;101623.94;5092107;28;20044;-77
2022/10/08 02:49:53;;;;;;;11.50;2.95;;;;;;;11.21;94.77;101615.13;5091777;28;20111;-77
2022/10/08 02:52:22;;;;;;;16.95;2.92;;;;;;;11.19;94.52;101623.94;5090909;28;20467;-77
2022/10/08 02:54:50;;;;;;;9.40;2.70;;;;;;;11.14;95.28;101623.13;5094693;28;20161;-77
2022/10/08 02:57:25;;;;;;;11.48;2.85;;;;;;;11.12;94.46;101616.09;5115654;28;20363;-77
2022/10/08 02:59:51;;;;;;;12.73;2.72;;;;;;;11.11;94.24;101617.00;5115127;28;20067;-77
2022/10/08 03:02:29;;;;;;;9.85;2.78;;;;;;;11.13;94.26;101609.91;5109367;27;20044;-77
2022/10/08 03:05:00;;;;;;;8.80;2.30;;;;;;;11.09;94.88;101610.84;5095346;28;20024;-77
2022/10/08 03:07:29;;;;;;;12.18;2.70;;;;;;;11.07;94.43;101615.28;5107500;28;20035;-77
2022/10/08 03:09:56;;;;;;;12.23;2.67;;;;;;;11.07;94.56;101625.88;5094804;28;20047;-77
2022/10/08 03:12:24;;;;;;;9.60;2.78;;;;;;;11.02;95.11;101620.63;5095119;28;20047;-77
2022/10/08 03:14:51;;;;;;;7.72;2.67;;;;;;;11.01;94.74;101629.47;5095313;28;20122;-78
2022/10/08 03:17:29;;;;;;;5.70;2.45;;;;;;;11.00;95.75;101629.47;5074664;28;20484;-77
2022/10/08 03:19:55;;;;;;;10.18;2.35;;;;;;;10.97;95.53;101628.63;5110947;28;20028;-77
2022/10/08 03:22:22;;;;;;;11.85;2.95;;;;;;;10.96;95.55;101626.88;5111754;28;20039;-77
2022/10/08 03:24:47;;;;;;;9.40;2.60;;;;;;;10.97;95.40;101633.06;5095510;28;20036;-77
2022/10/08 03:27:13;;;;;;;7.70;2.58;;;;;;;10.94;95.51;101638.38;5096829;28;20046;-77
2022/10/08 03:29:38;;;;;;;8.05;2.60;;;;;;;10.92;95.74;101640.16;5114400;28;20391;-77
2022/10/08 03:32:05;;;;;;;10.45;2.95;;;;;;;10.91;95.84;101636.66;5098400;28;20050;-77
2022/10/08 03:34:31;;;;;;;10.88;3.20;;;;;;;10.87;96.12;101634.91;5096664;28;20503;-77
2022/10/08 03:36:56;;;;;;;9.27;2.53;;;;;;;10.84;95.95;101640.25;5105927;28;20067;-77
2022/10/08 03:39:22;;;;;;;9.23;2.55;;;;;;;10.81;96.27;101648.25;5109499;28;20043;-77
2022/10/08 03:41:47;;;;;;;10.73;2.47;;;;;;;10.79;96.22;101649.16;5095610;28;20097;-77
2022/10/08 03:44:13;;;;;;;6.72;2.17;;;;;;;10.77;95.91;101646.50;5089481;28;20024;-78
2022/10/08 03:46:38;;;;;;;13.63;2.90;;;;;;;10.74;96.24;101649.19;5106664;28;20279;-78
2022/10/08 03:49:04;;;;;;;13.88;2.80;;;;;;;10.69;96.50;101651.00;5094044;28;20040;-78
2022/10/08 03:51:29;;;;;;;10.88;2.65;;;;;;;10.68;96.50;101654.53;5097393;28;20070;-78
2022/10/08 03:53:56;;;;;;;8.65;2.42;;;;;;;10.65;96.67;101649.28;5088805;28;20034;-78
2022/10/08 03:56:24;;;;;;;5.18;1.98;;;;;;;10.59;96.28;101659.94;5094904;28;20040;-78
2022/10/08 03:58:55;;;;;;;4.63;2.53;;;;;;;10.54;97.11;101663.50;5093667;28;20383;-78
2022/10/08 04:01:21;;;;;;;11.00;3.50;;;;;;;10.53;96.56;101666.13;5073148;28;20106;-78
2022/10/08 04:03:46;;;;;;;7.78;2.50;;;;;;;10.49;97.18;101665.31;5090861;28;20024;-77
2022/10/08 04:06:12;;;;;;;10.85;2.55;;;;;;;10.44;96.65;101664.47;5093552;28;20123;-77
2022/10/08 04:08:38;;;;;;;6.38;2.22;;;;;;;10.41;96.16;101671.53;5094794;28;20040;-77
2022/10/08 04:11:05;;;;;;;9.90;2.63;;;;;;;10.39;97.39;101670.69;5094676;28;20043;-77
2022/10/08 04:13:32;;;;;;;7.28;2.45;;;;;;;10.37;97.83;101678.63;5092385;28;20134;-77
2022/10/08 04:16:07;;;;;;;6.97;2.40;;;;;;;10.38;98.08;101677.72;5086463;28;20043;-77
2022/10/08 04:18:33;;;;;;;10.52;2.72;;;;;;;10.37;97.34;101678.63;5089714;28;20094;-77
2022/10/08 04:21:02;;;;;;;7.93;2.80;;;;;;;10.41;98.14;101679.47;5094503;28;20118;-77
2022/10/08 04:23:30;;;;;;;9.68;2.70;;;;;;;10.42;98.97;101683.91;5093496;28;20463;-77
2022/10/08 04:25:56;;;;;;;12.30;3.67;;;;;;;10.43;99.45;101683.88;5094225;28;20113;-78
2022/10/08 04:28:22;;;;;;;8.75;3.60;;;;;;;10.47;99.28;101684.75;5093227;28;20507;-78
2022/10/08 04:31:02;;;;;;;6.25;3.60;;;;;;;10.48;100.00;101676.81;5106701;28;20522;-78
2022/10/08 04:33:29;;;;;;;12.15;5.18;;;;;;;10.51;100.00;101678.53;5072817;28;20105;-78
2022/10/08 04:35:55;;;;;;;14.75;6.70;;;;;;;10.54;100.00;101682.03;5102719;28;20356;-78
2022/10/08 04:38:22;;;;;;;19.45;8.73;;;;;;;10.56;100.00;101692.63;5072909;28;20052;-77
2022/10/08 04:40:47;;;;;;;14.10;9.45;;;;;;;10.58;100.00;101690.81;5086459;28;20479;-78
2022/10/08 04:43:13;;;;;;;16.67;9.48;;;;;;;10.62;100.00;101689.03;5075684;28;20042;-78
2022/10/08 04:45:45;;;;;;;18.95;11.18;;;;;;;10.65;100.00;101699.59;5092320;28;20456;-78
2022/10/08 04:48:12;;;;;;;21.48;13.13;;;;;;;10.68;100.00;101696.91;5094143;28;20027;-78
2022/10/08 04:50:38;;;;;;;20.95;13.80;;;;;;;10.71;100.00;101699.56;5100687;28;20075;-78
2022/10/08 04:53:06;;;;;;;22.35;13.80;;;;;;;10.74;100.00;101695.09;5093970;28;20039;-78
2022/10/08 04:55:32;;;;;;;30.63;16.85;;;;;;;10.79;100.00;101704.78;5092522;28;20388;-78
2022/10/08 04:57:58;;;;;;;26.58;16.55;;;;;;;10.82;100.00;101705.63;5093823;28;20452;-78
2022/10/08 05:00:23;;;;;;;29.27;17.88;;;;;;;10.81;100.00;101714.47;5099053;28;20027;-78
2022/10/08 05:02:49;;;;;;;30.17;18.20;;;;;;;10.82;100.00;101716.22;5114068;28;20493;-77
2022/10/08 05:05:15;;;;;;;32.60;18.20;;;;;;;10.87;100.00;101716.19;5094684;28;20036;-78
2022/10/08 05:07:40;;;;;;;33.65;19.70;;;;;;;10.89;100.00;101725.00;5085131;28;20039;-77
2022/10/08 05:10:06;;;;;;;34.70;19.80;;;;;;;10.92;100.00;101717.03;5110745;28;20379;-78
2022/10/08 05:12:32;;;;;;;34.05;18.88;;;;;;;10.91;100.00;101724.09;5091883;28;20097;-78
2022/10/08 05:14:57;;;;;;;35.15;21.50;;;;;;;10.91;100.00;101721.44;5091749;28;20044;-78
2022/10/08 05:17:23;;;;;;;36.50;21.15;;;;;;;10.92;100.00;101722.31;5092859;28;20051;-78
2022/10/08 05:19:48;;;;;;;32.90;20.52;;;;;;;10.92;100.00;101736.44;5104986;28;20032;-78
2022/10/08 05:22:13;;;;;;;38.33;21.50;;;;;;;10.94;100.00;101733.78;5095899;27;20208;-78
2022/10/08 05:24:39;;;;;;;33.78;20.48;;;;;;;10.93;100.00;101735.56;5091942;28;20069;-78
2022/10/08 05:27:04;;;;;;;38.22;22.90;;;;;;;10.91;100.00;101731.19;5107591;28;20145;-78
2022/10/08 05:29:30;;;;;;;36.15;21.42;;;;;;;10.92;100.00;101730.28;5096935;28;20039;-78
2022/10/08 05:31:56;;;;;;;34.20;22.88;;;;;;;10.95;100.00;101735.53;5093091;28;20040;-78
2022/10/08 05:34:21;;;;;;;39.42;22.60;;;;;;;10.91;100.00;101739.13;5093137;28;20440;-78
2022/10/08 05:36:47;;;;;;;36.60;23.23;;;;;;;10.88;100.00;101744.44;5091949;28;20036;-75
2022/10/08 05:39:12;;;;;;;39.70;22.67;;;;;;;10.83;100.00;101736.56;5093002;28;20035;-75
2022/10/08 05:41:39;;;;;;;37.30;23.13;;;;;;;10.81;100.00;101751.56;5107260;28;20040;-77
2022/10/08 05:44:06;;;;;;;38.92;24.75;;;;;;;10.80;100.00;101760.41;5092814;28;20043;-77
2022/10/08 05:46:33;;;;;;;39.63;25.05;;;;;;;10.77;100.00;101760.44;5080649;28;20110;-77
2022/10/08 05:49:01;;;;;;;41.95;24.08;;;;;;;10.78;100.00;101759.56;5094838;28;20028;-77
2022/10/08 05:51:27;;;;;;;46.88;26.98;;;;;;;10.80;100.00;101759.53;5092628;28;20119;-77
2022/10/08 05:53:55;;;;;;;43.85;28.38;;;;;;;10.77;100.00;101758.66;5092562;28;20032;-77
2022/10/08 05:56:23;;;;;;;41.40;25.90;;;;;;;10.79;100.00;101771.91;5092315;28;20480;-77
2022/10/08 05:58:49;;;;;;;40.58;26.90;;;;;;;10.77;100.00;101771.91;5092721;28;20112;-77
2022/10/08 06:01:20;;;;;;;40.80;26.88;;;;;;;10.74;100.00;101774.59;5092266;28;20035;-77
2022/10/08 06:03:51;;;;;;;34.05;24.55;;;;;;;10.76;100.00;101780.75;5100196;28;20238;-78
2022/10/08 06:06:17;;;;;;;41.20;26.58;;;;;;;10.73;100.00;101779.88;5082721;28;20067;-77
2022/10/08 06:08:43;;;;;;;42.05;27.08;;;;;;;10.72;100.00;101784.31;5074528;28;20493;-78
2022/10/08 06:11:09;;;;;;;45.75;29.30;;;;;;;10.71;100.00;101794.94;5074077;28;20032;-78
2022/10/08 06:13:34;;;;;;;47.42;27.02;;;;;;;10.68;100.00;101795.84;5093263;28;20491;-78
2022/10/08 06:16:01;;;;;;;47.60;26.83;;;;;;;10.65;100.00;101795.84;5075744;28;20067;-78
2022/10/08 06:18:30;;;;;;;49.67;28.83;;;;;;;10.62;100.00;101803.81;5092297;28;20043;-78
2022/10/08 06:20:56;;;;;;;43.25;27.55;;;;;;;10.64;100.00;101801.16;5090975;28;20024;-78
2022/10/08 06:23:23;;;;;;;42.33;26.65;;;;;;;10.64;100.00;101811.75;5079656;28;20110;-78
2022/10/08 06:25:49;;;;;;;36.85;23.40;;;;;;;10.64;100.00;101823.22;5105158;28;20100;-77
2022/10/08 06:28:15;;;;;;;45.63;26.77;;;;;;;10.64;100.00;101822.34;5103062;28;20035;-77
2022/10/08 06:30:41;;;;;;;40.75;25.27;;;;;;;10.65;100.00;101830.28;5102384;28;20103;-77
2022/10/08 06:33:08;;;;;;;38.80;24.27;;;;;;;10.64;100.00;101831.19;5079082;28;20217;-77
2022/10/08 06:35:34;;;;;;;42.53;24.27;;;;;;;10.66;100.00;101839.13;5112425;28;20031;-77
2022/10/08 06:38:00;;;;;;;35.78;23.73;;;;;;;10.69;100.00;101847.91;5094783;28;20028;-77
2022/10/08 06:40:26;;;;;;;37.55;24.40;;;;;;;10.70;100.00;101851.44;5083233;28;20042;-77
2022/10/08 06:42:51;;;;;;;39.03;23.15;;;;;;;10.70;100.00;101838.19;5076538;28;20051;-77
2022/10/08 06:45:17;;;;;;;39.63;23.80;;;;;;;10.70;100.00;101846.13;5097564;28;20031;-77
2022/10/08 06:47:43;;;;;;;42.78;23.38;;;;;;;10.71;100.00;101856.75;5099143;28;20051;-77
2022/10/08 06:50:09;;;;;;;40.45;22.52;;;;;;;10.74;100.00;101861.13;5104952;28;20097;-77
2022/10/08 06:52:34;;;;;;;38.80;22.25;;;;;;;10.75;100.00;101854.94;5090696;28;20029;-77
2022/10/08 06:55:00;;;;;;;43.80;22.27;;;;;;;10.79;100.00;101869.06;5109338;28;20012;-77
2022/10/08 06:57:25;;;;;;;39.05;21.20;;;;;;;10.79;100.00;101869.94;5112539;28;20065;-77
2022/10/08 06:59:53;;;;;;;40.97;22.10;;;;;;;10.84;100.00;101881.38;5093760;28;20367;-77
2022/10/08 07:02:19;;;;;;;36.17;20.95;;;;;;;10.85;100.00;101880.47;5094232;28;20036;-77
2022/10/08 07:04:45;;;;;;;31.80;19.70;;;;;;;10.89;100.00;101895.47;5085033;28;20040;-77
2022/10/08 07:07:10;;;;;;;33.63;19.15;;;;;;;10.89;100.00;101899.91;5089870;28;20092;-77
2022/10/08 07:09:36;;;;;;;34.92;20.13;;;;;;;10.92;100.00;101898.09;5056993;28;20395;-77
2022/10/08 07:12:01;;;;;;;29.58;17.48;;;;;;;10.96;100.00;101909.59;5073985;28;20034;-77
2022/10/08 07:14:27;;;;;;;33.08;20.13;;;;;;;10.98;100.00;101908.69;5095503;28;20067;-77
2022/10/08 07:16:52;;;;;;;36.15;18.63;;;;;;;11.02;100.00;101904.22;5109467;28;20050;-78
2022/10/08 07:19:18;;;;;;;36.67;18.15;;;;;;;11.06;100.00;101908.63;5091731;28;20043;-78
2022/10/08 07:21:43;;;;;;;34.03;15.95;;;;;;;11.08;100.00;101911.28;5091621;28;20036;-77
2022/10/08 07:24:09;;;;;;;28.30;15.00;;;;;;;11.12;99.65;101913.88;5090202;28;20028;-77
2022/10/08 07:26:35;;;;;;;29.02;15.57;;;;;;;11.20;99.80;101932.38;5090463;28;20459;-76
2022/10/08 07:29:04;;;;;;;27.50;14.90;;;;;;;11.24;99.71;101923.53;5091414;28;20072;-76
2022/10/08 07:31:32;;;;;;;25.60;13.65;;;;;;;11.29;99.33;101926.13;5084517;28;20041;-76
2022/10/08 07:33:59;;;;;;;23.95;12.73;;;;;;;11.34;98.36;101933.16;5082134;28;20088;-76
2022/10/08 07:36:26;;;;;;;23.48;11.80;;;;;;;11.41;97.52;101934.88;5095668;28;20106;-77
2022/10/08 07:38:57;;;;;;;24.63;12.00;;;;;;;11.46;97.22;101937.50;5094021;28;20047;-77
2022/10/08 07:41:23;;;;;;;20.55;10.23;;;;;;;11.53;96.54;101939.22;5098331;28;20035;-77
2022/10/08 07:43:51;;;;;;;20.00;9.55;;;;;;;11.59;95.36;101939.13;5094390;28;20032;-77
2022/10/08 07:46:17;;;;;;;21.83;8.68;;;;;;;11.65;95.15;101934.69;5099064;28;20438;-77
2022/10/08 07:48:42;;;;;;;22.30;9.73;;;;;;;11.71;94.92;101947.91;5106899;28;20024;-77
2022/10/08 07:51:14;;;;;;;20.90;8.52;;;;;;;11.76;94.68;101946.09;5093740;28;20066;-76
2022/10/08 07:53:40;;;;;;;18.00;7.38;;;;;;;11.81;93.75;101950.44;5081210;28;20448;-77
2022/10/08 07:56:07;;;;;;;20.08;6.70;;;;;;;11.91;93.11;101940.66;5107434;28;20594;-77
2022/10/08 07:58:33;;;;;;;13.57;6.15;;;;;;;11.95;91.64;101946.84;5097380;28;20382;-77
2022/10/08 08:01:02;;;;;;;14.75;6.30;;;;;;;12.00;91.02;101955.63;5094941;28;20501;-77
2022/10/08 08:03:28;;;;;;;18.65;6.32;;;;;;;12.07;91.34;101956.44;5104449;28;20039;-77
2022/10/08 08:06:19;;;;;;;14.00;4.53;;;;;;;12.13;90.55;101964.34;5103996;28;20032;-77
2022/10/08 08:08:44;;;;;;;13.02;4.97;;;;;;;12.20;89.79;101969.56;5110346;28;20046;-77
2022/10/08 08:11:14;;;;;;;15.00;4.40;;;;;;;12.26;89.21;101961.56;5093113;28;20111;-77
2022/10/08 08:13:41;;;;;;;12.75;4.50;;;;;;;12.36;89.05;101978.25;5097299;28;20062;-77
2022/10/08 08:16:12;;;;;;;12.88;4.15;;;;;;;12.43;87.27;101982.59;5104628;28;20040;-78
2022/10/08 08:18:42;;;;;;;17.13;3.88;;;;;;;12.51;87.62;101977.19;5081981;28;20040;-77
2022/10/08 08:21:17;;;;;;;15.80;3.40;;;;;;;12.54;85.51;101982.50;5105357;28;20039;-78
2022/10/08 08:23:47;;;;;;;13.50;3.50;;;;;;;12.56;84.85;101986.00;5107736;28;20092;-78
2022/10/08 08:26:20;;;;;;;14.73;3.28;;;;;;;12.62;84.99;101993.91;5094562;28;20028;-78
2022/10/08 08:28:53;;;;;;;10.93;2.95;;;;;;;12.68;83.93;102003.56;5095231;28;20392;-78
2022/10/08 08:31:21;;;;;;;10.55;1.88;;;;;;;12.72;81.86;101996.44;5092804;28;20036;-78
2022/10/08 08:33:49;;;;;;;12.07;2.50;;;;;;;12.77;81.88;102010.56;5094675;28;20027;-78
2022/10/08 08:36:19;;;;;;;14.43;2.55;;;;;;;12.84;81.07;102014.91;5079900;28;20036;-78
2022/10/08 08:38:45;;;;;;;12.75;2.63;;;;;;;12.88;80.50;102014.84;5094449;28;20043;-78
2022/10/08 08:41:39;;;;;;;6.93;2.00;;;;;;;12.95;79.49;102010.31;5079915;28;20036;-78
2022/10/08 08:44:24;;;;;;;9.45;2.67;;;;;;;12.97;77.87;102019.16;5095461;28;20447;-79
2022/10/08 08:47:15;;;;;;;10.10;2.10;;;;;;;13.00;77.54;102024.44;5093945;28;20548;-78
2022/10/08 08:49:53;;;;;;;14.60;2.58;;;;;;;13.05;77.06;102027.03;5094677;28;20453;-78
2022/10/08 08:52:23;;;;;;;14.38;2.15;;;;;;;13.11;77.52;102024.31;5104312;28;20046;-78
2022/10/08 08:54:52;;;;;;;12.13;2.03;;;;;;;13.20;77.86;102025.94;5092498;28;20093;-78
2022/10/08 08:57:37;;;;;;;7.13;1.92;;;;;;;13.27;77.46;102033.84;5072389;28;20016;-79
2022/10/08 09:00:23;;;;;;;7.55;2.60;;;;;;;13.36;76.34;102035.50;5078960;28;20561;-80
2022/10/08 09:03:02;;;;;;;7.90;1.90;;;;;;;13.36;75.10;102042.63;5114236;28;20081;-81
2022/10/08 09:05:32;;;;;;;11.27;2.25;;;;;;;13.37;75.11;102037.25;5094080;28;20399;-79
2022/10/08 09:08:10;;;;;;;9.95;2.45;;;;;;;13.41;74.74;102036.31;5092318;28;20035;-79
2022/10/08 09:10:41;;;;;;;10.32;2.35;;;;;;;13.49;73.36;102045.06;5105133;28;20043;-80
2022/10/08 09:13:21;;;;;;;13.40;2.40;;;;;;;13.49;73.37;102045.06;5119228;27;20050;-80
2022/10/08 09:15:47;;;;;;;8.77;2.20;;;;;;;13.55;73.68;102042.34;5085374;28;20054;-79
2022/10/08 09:18:15;;;;;;;11.90;2.10;;;;;;;13.68;72.03;102048.34;5086085;28;20041;-79
2022/10/08 09:20:41;;;;;;;16.38;2.42;;;;;;;13.80;71.62;102052.59;5112252;27;20026;-79
2022/10/08 09:23:25;;;;;;;8.32;1.90;;;;;;;13.73;71.99;102057.13;5102991;27;20340;-79
2022/10/08 09:26:00;;;;;;;12.00;2.00;;;;;;;13.63;71.81;102054.66;5093473;28;20020;-80
2022/10/08 09:28:40;;;;;;;9.32;2.20;;;;;;;13.57;70.90;102063.56;5093447;28;20036;-80
2022/10/08 09:31:23;;;;;;;9.57;2.40;;;;;;;13.65;70.44;102068.78;5091792;28;20530;-79
2022/10/08 09:34:10;;;;;;;9.40;2.80;;;;;;;13.65;71.80;102068.78;5093410;28;20061;-79
2022/10/08 09:36:40;;;;;;;18.77;2.50;;;;;;;13.71;71.61;102072.25;5091754;28;20095;-79
2022/10/08 09:39:16;;;;;;;11.20;2.25;;;;;;;13.74;72.60;102082.84;5104344;28;20192;-79
2022/10/08 09:41:43;;;;;;;6.15;1.75;;;;;;;13.81;71.45;102082.75;5091647;28;20447;-79
2022/10/08 09:44:11;;;;;;;12.63;2.05;;;;;;;13.98;69.98;102075.38;5083616;28;20376;-79
2022/10/08 09:46:36;;;;;;;12.40;2.30;;;;;;;14.14;68.51;102095.53;5112464;27;20091;-79
2022/10/08 09:49:27;;;;;;;8.60;2.03;;;;;;;14.32;66.23;102101.47;5101895;28;20035;-80
2022/10/08 09:51:54;;;;;;;9.43;2.15;;;;;;;14.40;65.71;102099.53;5080146;28;20035;-79
2022/10/08 09:54:28;;;;;;;10.63;2.00;;;;;;;14.35;61.92;102109.41;5113098;28;20055;-79
2022/10/08 09:56:59;;;;;;;5.30;1.67;;;;;;;14.37;63.26;102111.13;5108241;28;20077;-79
2022/10/08 09:59:27;;;;;;;6.88;1.70;;;;;;;14.49;62.51;102114.47;5091186;28;20063;-79
2022/10/08 10:01:54;;;;;;;9.63;2.10;;;;;;;14.50;61.70;102111.78;5106722;28;20039;-79
2022/10/08 10:04:30;;;;;;;7.30;1.83;;;;;;;14.51;62.36;102115.31;5092367;28;20036;-79
2022/10/08 10:06:56;;;;;;;9.30;1.98;;;;;;;14.60;62.91;102109.88;5094892;28;20102;-79
2022/10/08 10:09:27;;;;;;;10.40;1.80;;;;;;;14.63;62.09;102113.34;5112736;28;20388;-79
2022/10/08 10:12:10;;;;;;;10.43;2.10;;;;;;;14.75;61.47;102114.91;5094480;28;20056;-80
2022/10/08 10:15:02;;;;;;;7.90;1.60;;;;;;;14.77;60.71;102107.75;5102701;28;20058;-80
2022/10/08 10:18:01;;;;;;;7.85;1.70;;;;;;;14.62;60.08;102116.06;5100509;28;20104;-79
2022/10/08 10:20:34;;;;;;;8.85;2.28;;;;;;;14.67;60.29;102116.84;5108978;28;20629;-79
2022/10/08 10:23:11;;;;;;;12.10;1.88;;;;;;;14.90;61.71;102121.72;5101681;28;20031;-79
2022/10/08 10:25:48;;;;;;;8.32;2.00;;;;;;;15.06;58.80;102114.31;5090986;28;20085;-81
2022/10/08 10:28:20;;;;;;;6.00;1.40;;;;;;;15.08;57.02;102124.94;5090665;28;20039;-80
2022/10/08 10:30:59;;;;;;;7.68;1.60;;;;;;;14.99;56.27;102128.69;5104502;28;20031;-80
2022/10/08 10:33:30;;;;;;;5.50;1.30;;;;;;;15.05;56.84;102133.88;5079436;28;20038;-80
2022/10/08 10:35:59;;;;;;;4.22;1.30;;;;;;;15.17;57.04;102130.97;5090583;28;20035;-79
2022/10/08 10:38:28;;;;;;;7.85;1.60;;;;;;;15.26;55.96;102127.25;5092169;28;20024;-80
2022/10/08 10:41:30;;;;;;;6.13;1.58;;;;;;;15.28;55.75;102128.06;5090517;28;20113;-80
2022/10/08 10:44:21;;;;;;;13.65;1.85;;;;;;;15.26;57.21;102140.59;5082013;28;20024;-80
2022/10/08 10:46:50;;;;;;;12.63;2.00;;;;;;;15.27;56.02;102137.00;5070349;28;20440;-80
2022/10/08 10:49:20;;;;;;;8.98;1.52;;;;;;;15.29;56.48;102134.31;5082652;28;20036;-79
2022/10/08 10:51:53;;;;;;;7.95;1.70;;;;;;;15.12;56.56;102132.00;5091718;28;20031;-80
2022/10/08 10:54:30;;;;;;;10.20;2.70;;;;;;;15.05;57.29;102136.56;5090581;28;20458;-79
2022/10/08 10:57:07;;;;;;;5.70;1.65;;;;;;;14.90;56.96;102140.41;5091828;28;20498;-79
2022/10/08 11:00:03;;;;;;;7.13;1.95;;;;;;;15.04;56.99;102138.34;5104570;28;20051;-79
2022/10/08 11:02:41;;;;;;;7.80;1.95;;;;;;;15.05;56.63;102141.91;5080620;28;20063;-79
2022/10/08 11:05:24;;;;;;;6.95;2.05;;;;;;;14.91;56.46;102143.94;5089580;28;20032;-79
2022/10/08 11:07:53;;;;;;;5.70;1.63;;;;;;;14.62;56.55;102143.59;5081148;28;20040;-79
2022/10/08 11:10:21;;;;;;;7.32;1.50;;;;;;;14.42;57.04;102140.38;5090397;28;20024;-79
2022/10/08 11:13:12;;;;;;;13.32;2.50;;;;;;;14.46;57.79;102146.50;5090469;28;20028;-79
2022/10/08 11:15:43;;;;;;;6.15;1.40;;;;;;;14.59;56.92;102150.78;5097742;28;20043;-79
2022/10/08 11:18:24;;;;;;;8.10;1.90;;;;;;;14.48;57.70;102148.25;5101922;28;20530;-79
2022/10/08 11:21:17;;;;;;;6.85;1.63;;;;;;;14.57;58.70;102136.59;5095552;28;20028;-79
2022/10/08 11:24:08;;;;;;;8.55;1.77;;;;;;;15.01;56.78;102145.56;5095806;28;20536;-79
2022/10/08 11:26:54;;;;;;;9.63;1.93;;;;;;;15.38;55.63;102144.78;5095700;28;20479;-79
2022/10/08 11:29:28;;;;;;;7.63;1.83;;;;;;;15.42;55.48;102135.81;5095683;28;20289;-79
2022/10/08 11:31:54;;;;;;;8.60;1.67;;;;;;;15.46;54.77;102149.06;5105796;28;20067;-79